sensor_id;sensor_type;location;lat;lon;timestamp;pressure;altitude;pressure_sealevel;temperature;humidity
13690;BME280;6917;52.194;9.894;2022-11-20T00:00:08;100108.72;;;-4.12;100.00
13690;BME280;6917;52.194;9.894;2022-11-20T00:02:34;100106.31;;;-3.84;100.00
13690;BME280;6917;52.194;9.894;2022-11-20T00:04:59;100107.09;;;-3.65;100.00
13690;BME280;6917;52.194;9.894;2022-11-20T00:07:25;100111.31;;;-3.57;100.00
13690;BME280;6917;52.194;9.894;2022-11-20T00:09:50;100112.69;;;-3.55;100.00
13690;BME280;6917;52.194;9.894;2022-11-20T00:12:15;100111.19;;;-3.81;100.00
13690;BME280;6917;52.194;9.894;2022-11-20T00:14:41;100114.84;;;-3.75;100.00
13690;BME280;6917;52.194;9.894;2022-11-20T00:17:06;100108.72;;;-3.64;100.00
13690;BME280;6917;52.194;9.894;2022-11-20T00:19:32;100103.38;;;-3.64;100.00
13690;BME280;6917;52.194;9.894;2022-11-20T00:21:57;100104.97;;;-3.75;100.00
13690;BME280;6917;52.194;9.894;2022-11-20T00:24:22;100104.91;;;-3.86;100.00
13690;BME280;6917;52.194;9.894;2022-11-20T00:26:48;100098.78;;;-3.87;100.00
13690;BME280;6917;52.194;9.894;2022-11-20T00:29:13;100097.66;;;-3.98;100.00
13690;BME280;6917;52.194;9.894;2022-11-20T00:31:38;100098.53;;;-3.85;100.00
13690;BME280;6917;52.194;9.894;2022-11-20T00:34:04;100106.00;;;-3.76;100.00
13690;BME280;6917;52.194;9.894;2022-11-20T00:36:32;100104.28;;;-3.70;100.00
13690;BME280;6917;52.194;9.894;2022-11-20T00:38:58;100101.09;;;-3.61;100.00
13690;BME280;6917;52.194;9.894;2022-11-20T00:41:25;100103.28;;;-3.57;100.00
13690;BME280;6917;52.194;9.894;2022-11-20T00:43:54;100105.38;;;-3.60;100.00
13690;BME280;6917;52.194;9.894;2022-11-20T00:46:25;100109.69;;;-3.58;100.00
13690;BME280;6917;52.194;9.894;2022-11-20T00:48:51;100103.06;;;-3.56;100.00
13690;BME280;6917;52.194;9.894;2022-11-20T00:51:18;100092.03;;;-3.60;100.00
13690;BME280;6917;52.194;9.894;2022-11-20T00:53:44;100092.25;;;-3.61;100.00
13690;BME280;6917;52.194;9.894;2022-11-20T00:56:12;100092.03;;;-3.60;100.00
13690;BME280;6917;52.194;9.894;2022-11-20T00:58:39;100095.28;;;-3.57;100.00
13690;BME280;6917;52.194;9.894;2022-11-20T01:03:37;100095.13;;;-3.63;100.00
13690;BME280;6917;52.194;9.894;2022-11-20T01:06:06;100095.13;;;-3.63;100.00
13690;BME280;6917;52.194;9.894;2022-11-20T01:08:33;100096.63;;;-3.67;100.00
13690;BME280;6917;52.194;9.894;2022-11-20T01:11:10;100090.88;;;-3.82;99.61
13690;BME280;6917;52.194;9.894;2022-11-20T01:13:36;100092.22;;;-3.91;99.67
13690;BME280;6917;52.194;9.894;2022-11-20T01:16:09;100087.59;;;-3.96;99.44
13690;BME280;6917;52.194;9.894;2022-11-20T01:18:37;100092.44;;;-4.04;100.00
13690;BME280;6917;52.194;9.894;2022-11-20T01:21:17;100082.69;;;-3.99;100.00
13690;BME280;6917;52.194;9.894;2022-11-20T01:23:43;100085.88;;;-4.08;100.00
13690;BME280;6917;52.194;9.894;2022-11-20T01:26:12;100091.25;;;-4.27;100.00
13690;BME280;6917;52.194;9.894;2022-11-20T01:28:38;100086.19;;;-4.35;100.00
13690;BME280;6917;52.194;9.894;2022-11-20T01:33:37;100083.75;;;-4.73;100.00
13690;BME280;6917;52.194;9.894;2022-11-20T01:36:04;100066.63;;;-4.84;100.00
13690;BME280;6917;52.194;9.894;2022-11-20T01:38:30;100076.84;;;-4.81;100.00
13690;BME280;6917;52.194;9.894;2022-11-20T01:40:55;100066.59;;;-4.59;100.00
13690;BME280;6917;52.194;9.894;2022-11-20T01:43:22;100070.22;;;-4.53;100.00
13690;BME280;6917;52.194;9.894;2022-11-20T01:48:42;100059.47;;;-4.65;100.00
13690;BME280;6917;52.194;9.894;2022-11-20T01:51:22;100059.25;;;-4.63;100.00
13690;BME280;6917;52.194;9.894;2022-11-20T01:53:50;100056.56;;;-4.63;100.00
13690;BME280;6917;52.194;9.894;2022-11-20T01:56:17;100046.16;;;-4.65;100.00
13690;BME280;6917;52.194;9.894;2022-11-20T01:58:51;100049.25;;;-4.68;100.00
13690;BME280;6917;52.194;9.894;2022-11-20T02:01:18;100047.03;;;-4.71;100.00
13690;BME280;6917;52.194;9.894;2022-11-20T02:03:44;100030.59;;;-4.68;100.00
13690;BME280;6917;52.194;9.894;2022-11-20T02:06:18;100040.97;;;-4.60;100.00
13690;BME280;6917;52.194;9.894;2022-11-20T02:08:44;100032.91;;;-4.53;100.00
13690;BME280;6917;52.194;9.894;2022-11-20T02:11:09;100035.56;;;-4.53;100.00
13690;BME280;6917;52.194;9.894;2022-11-20T02:13:35;100039.41;;;-4.67;100.00
13690;BME280;6917;52.194;9.894;2022-11-20T02:16:21;100040.44;;;-4.87;100.00
13690;BME280;6917;52.194;9.894;2022-11-20T02:18:48;100037.88;;;-5.18;100.00
13690;BME280;6917;52.194;9.894;2022-11-20T02:24:14;100038.94;;;-5.01;100.00
13690;BME280;6917;52.194;9.894;2022-11-20T02:29:28;100036.38;;;-4.89;100.00
13690;BME280;6917;52.194;9.894;2022-11-20T02:31:57;100041.34;;;-5.18;100.00
13690;BME280;6917;52.194;9.894;2022-11-20T02:34:24;100027.28;;;-5.25;100.00
13690;BME280;6917;52.194;9.894;2022-11-20T02:36:50;100025.69;;;-5.07;100.00
13690;BME280;6917;52.194;9.894;2022-11-20T02:39:17;100031.78;;;-5.00;100.00
13690;BME280;6917;52.194;9.894;2022-11-20T02:41:43;100029.94;;;-4.82;100.00
13690;BME280;6917;52.194;9.894;2022-11-20T02:44:08;100016.47;;;-4.68;100.00
13690;BME280;6917;52.194;9.894;2022-11-20T02:46:34;100020.31;;;-4.64;100.00
13690;BME280;6917;52.194;9.894;2022-11-20T02:49:01;100017.94;;;-4.54;100.00
13690;BME280;6917;52.194;9.894;2022-11-20T02:51:26;100008.56;;;-4.57;100.00
13690;BME280;6917;52.194;9.894;2022-11-20T02:53:52;100008.19;;;-4.60;100.00
13690;BME280;6917;52.194;9.894;2022-11-20T02:56:17;100011.00;;;-4.73;100.00
13690;BME280;6917;52.194;9.894;2022-11-20T02:58:42;100009.50;;;-5.06;100.00
13690;BME280;6917;52.194;9.894;2022-11-20T03:01:07;100004.09;;;-5.43;100.00
13690;BME280;6917;52.194;9.894;2022-11-20T03:03:33;100000.88;;;-5.51;100.00
13690;BME280;6917;52.194;9.894;2022-11-20T03:05:59;99999.47;;;-5.54;100.00
13690;BME280;6917;52.194;9.894;2022-11-20T03:08:24;100012.88;;;-5.42;100.00
13690;BME280;6917;52.194;9.894;2022-11-20T03:10:49;100015.47;;;-5.11;100.00
13690;BME280;6917;52.194;9.894;2022-11-20T03:13:15;100020.22;;;-4.94;100.00
13690;BME280;6917;52.194;9.894;2022-11-20T03:15:40;100008.38;;;-4.98;100.00
13690;BME280;6917;52.194;9.894;2022-11-20T03:18:05;100006.41;;;-5.03;100.00
13690;BME280;6917;52.194;9.894;2022-11-20T03:20:32;100002.84;;;-4.97;100.00
13690;BME280;6917;52.194;9.894;2022-11-20T03:22:58;100010.38;;;-4.94;100.00
13690;BME280;6917;52.194;9.894;2022-11-20T03:25:23;99999.56;;;-5.17;100.00
13690;BME280;6917;52.194;9.894;2022-11-20T03:27:49;99999.50;;;-5.35;100.00
13690;BME280;6917;52.194;9.894;2022-11-20T03:30:14;99996.59;;;-5.27;100.00
13690;BME280;6917;52.194;9.894;2022-11-20T03:32:40;99995.66;;;-5.15;100.00
13690;BME280;6917;52.194;9.894;2022-11-20T03:35:06;99995.06;;;-5.17;100.00
13690;BME280;6917;52.194;9.894;2022-11-20T03:37:31;99989.19;;;-5.25;100.00
13690;BME280;6917;52.194;9.894;2022-11-20T03:39:57;99989.56;;;-5.22;100.00
13690;BME280;6917;52.194;9.894;2022-11-20T03:42:22;99991.34;;;-5.16;100.00
13690;BME280;6917;52.194;9.894;2022-11-20T03:45:06;99991.50;;;-5.11;100.00
13690;BME280;6917;52.194;9.894;2022-11-20T03:47:31;99985.72;;;-5.07;100.00
13690;BME280;6917;52.194;9.894;2022-11-20T03:49:57;99981.84;;;-5.05;100.00
13690;BME280;6917;52.194;9.894;2022-11-20T03:52:22;99976.88;;;-5.01;100.00
13690;BME280;6917;52.194;9.894;2022-11-20T03:54:47;99988.47;;;-4.96;100.00
13690;BME280;6917;52.194;9.894;2022-11-20T03:57:12;99986.56;;;-4.89;100.00
13690;BME280;6917;52.194;9.894;2022-11-20T03:59:38;99988.66;;;-4.91;100.00
13690;BME280;6917;52.194;9.894;2022-11-20T04:02:03;99987.41;;;-4.88;100.00
13690;BME280;6917;52.194;9.894;2022-11-20T04:04:28;99981.03;;;-4.87;100.00
13690;BME280;6917;52.194;9.894;2022-11-20T04:06:53;99977.69;;;-5.01;100.00
13690;BME280;6917;52.194;9.894;2022-11-20T04:09:19;99977.47;;;-4.81;100.00
13690;BME280;6917;52.194;9.894;2022-11-20T04:11:44;99977.91;;;-4.84;100.00
13690;BME280;6917;52.194;9.894;2022-11-20T04:14:14;99969.69;;;-5.01;100.00
13690;BME280;6917;52.194;9.894;2022-11-20T04:16:40;99962.00;;;-5.09;100.00
13690;BME280;6917;52.194;9.894;2022-11-20T04:19:10;99960.81;;;-4.95;100.00
13690;BME280;6917;52.194;9.894;2022-11-20T04:21:36;99963.34;;;-5.18;100.00
13690;BME280;6917;52.194;9.894;2022-11-20T04:24:01;99963.69;;;-4.96;100.00
13690;BME280;6917;52.194;9.894;2022-11-20T04:26:28;99961.84;;;-4.96;100.00
13690;BME280;6917;52.194;9.894;2022-11-20T04:28:54;99963.88;;;-4.91;100.00
13690;BME280;6917;52.194;9.894;2022-11-20T04:31:22;99959.13;;;-4.89;100.00
13690;BME280;6917;52.194;9.894;2022-11-20T04:33:49;99958.00;;;-4.82;100.00
13690;BME280;6917;52.194;9.894;2022-11-20T04:36:15;99958.97;;;-4.76;100.00
13690;BME280;6917;52.194;9.894;2022-11-20T04:38:42;99963.28;;;-4.75;100.00
13690;BME280;6917;52.194;9.894;2022-11-20T04:41:13;99958.22;;;-4.83;100.00
13690;BME280;6917;52.194;9.894;2022-11-20T04:43:39;99967.78;;;-4.75;100.00
13690;BME280;6917;52.194;9.894;2022-11-20T04:46:04;99960.44;;;-4.80;100.00
13690;BME280;6917;52.194;9.894;2022-11-20T04:48:30;99951.78;;;-4.75;100.00
13690;BME280;6917;52.194;9.894;2022-11-20T04:50:55;99956.44;;;-4.71;100.00
13690;BME280;6917;52.194;9.894;2022-11-20T04:53:21;99962.16;;;-5.04;100.00
13690;BME280;6917;52.194;9.894;2022-11-20T04:55:47;99966.38;;;-4.96;100.00
13690;BME280;6917;52.194;9.894;2022-11-20T04:58:13;99965.34;;;-4.77;100.00
13690;BME280;6917;52.194;9.894;2022-11-20T05:00:38;99967.78;;;-4.75;100.00
13690;BME280;6917;52.194;9.894;2022-11-20T05:03:04;99967.34;;;-4.72;100.00
13690;BME280;6917;52.194;9.894;2022-11-20T05:05:29;99965.31;;;-4.59;100.00
13690;BME280;6917;52.194;9.894;2022-11-20T05:07:58;99958.50;;;-4.55;100.00
13690;BME280;6917;52.194;9.894;2022-11-20T05:10:25;99955.53;;;-4.65;100.00
13690;BME280;6917;52.194;9.894;2022-11-20T05:12:50;99957.25;;;-4.70;100.00
13690;BME280;6917;52.194;9.894;2022-11-20T05:15:16;99955.63;;;-5.08;100.00
13690;BME280;6917;52.194;9.894;2022-11-20T05:17:47;99951.69;;;-5.24;100.00
13690;BME280;6917;52.194;9.894;2022-11-20T05:20:12;99948.88;;;-5.29;100.00
13690;BME280;6917;52.194;9.894;2022-11-20T05:22:37;99949.38;;;-5.39;100.00
13690;BME280;6917;52.194;9.894;2022-11-20T05:25:03;99943.63;;;-5.35;100.00
13690;BME280;6917;52.194;9.894;2022-11-20T05:27:28;99944.38;;;-5.28;100.00
13690;BME280;6917;52.194;9.894;2022-11-20T05:29:53;99944.75;;;-5.06;100.00
13690;BME280;6917;52.194;9.894;2022-11-20T05:32:19;99929.31;;;-4.98;100.00
13690;BME280;6917;52.194;9.894;2022-11-20T05:34:44;99931.16;;;-4.98;100.00
13690;BME280;6917;52.194;9.894;2022-11-20T05:37:09;99918.13;;;-4.88;100.00
13690;BME280;6917;52.194;9.894;2022-11-20T05:39:34;99925.09;;;-4.87;100.00
13690;BME280;6917;52.194;9.894;2022-11-20T05:42:00;99920.69;;;-4.82;100.00
13690;BME280;6917;52.194;9.894;2022-11-20T05:44:43;99921.88;;;-4.78;100.00
13690;BME280;6917;52.194;9.894;2022-11-20T05:47:09;99923.41;;;-5.18;100.00
13690;BME280;6917;52.194;9.894;2022-11-20T05:49:34;99934.78;;;-5.29;100.00
13690;BME280;6917;52.194;9.894;2022-11-20T05:51:59;99932.19;;;-5.18;100.00
13690;BME280;6917;52.194;9.894;2022-11-20T05:54:24;99940.19;;;-4.99;100.00
13690;BME280;6917;52.194;9.894;2022-11-20T05:56:50;99943.56;;;-4.92;100.00
13690;BME280;6917;52.194;9.894;2022-11-20T05:59:15;99940.84;;;-4.86;100.00
13690;BME280;6917;52.194;9.894;2022-11-20T06:01:40;99939.81;;;-4.85;100.00
13690;BME280;6917;52.194;9.894;2022-11-20T06:04:06;99947.88;;;-5.10;100.00
13690;BME280;6917;52.194;9.894;2022-11-20T06:06:31;99957.91;;;-4.93;100.00
13690;BME280;6917;52.194;9.894;2022-11-20T06:08:57;99946.75;;;-4.84;100.00
13690;BME280;6917;52.194;9.894;2022-11-20T06:11:24;99941.88;;;-4.87;100.00
13690;BME280;6917;52.194;9.894;2022-11-20T06:13:50;99942.03;;;-4.82;100.00
13690;BME280;6917;52.194;9.894;2022-11-20T06:16:17;99947.59;;;-5.01;100.00
13690;BME280;6917;52.194;9.894;2022-11-20T06:18:44;99937.59;;;-4.88;100.00
13690;BME280;6917;52.194;9.894;2022-11-20T06:21:15;99943.47;;;-4.67;100.00
13690;BME280;6917;52.194;9.894;2022-11-20T06:23:41;99940.97;;;-4.62;100.00
13690;BME280;6917;52.194;9.894;2022-11-20T06:26:10;99940.88;;;-4.56;100.00
13690;BME280;6917;52.194;9.894;2022-11-20T06:28:35;99937.97;;;-4.54;100.00
13690;BME280;6917;52.194;9.894;2022-11-20T06:31:02;99943.78;;;-4.57;100.00
13690;BME280;6917;52.194;9.894;2022-11-20T06:33:28;99941.47;;;-4.54;100.00
13690;BME280;6917;52.194;9.894;2022-11-20T06:35:56;99937.94;;;-4.36;100.00
13690;BME280;6917;52.194;9.894;2022-11-20T06:38:22;99938.16;;;-4.37;100.00
13690;BME280;6917;52.194;9.894;2022-11-20T06:40:47;99930.97;;;-4.37;100.00
13690;BME280;6917;52.194;9.894;2022-11-20T06:43:13;99931.97;;;-4.20;100.00
13690;BME280;6917;52.194;9.894;2022-11-20T06:45:38;99925.03;;;-4.09;100.00
13690;BME280;6917;52.194;9.894;2022-11-20T06:48:04;99932.84;;;-3.96;100.00
13690;BME280;6917;52.194;9.894;2022-11-20T06:50:29;99919.94;;;-4.10;100.00
13690;BME280;6917;52.194;9.894;2022-11-20T06:52:54;99920.66;;;-4.03;100.00
13690;BME280;6917;52.194;9.894;2022-11-20T06:55:19;99925.00;;;-3.91;100.00
13690;BME280;6917;52.194;9.894;2022-11-20T06:57:45;99918.69;;;-3.96;100.00
13690;BME280;6917;52.194;9.894;2022-11-20T07:00:11;99916.53;;;-3.87;100.00
13690;BME280;6917;52.194;9.894;2022-11-20T07:02:36;99919.53;;;-3.84;100.00
13690;BME280;6917;52.194;9.894;2022-11-20T07:05:01;99920.22;;;-3.88;100.00
13690;BME280;6917;52.194;9.894;2022-11-20T07:07:27;99901.28;;;-4.10;100.00
13690;BME280;6917;52.194;9.894;2022-11-20T07:09:52;99904.06;;;-4.17;100.00
13690;BME280;6917;52.194;9.894;2022-11-20T07:12:17;99900.47;;;-4.11;100.00
13690;BME280;6917;52.194;9.894;2022-11-20T07:14:43;99896.91;;;-3.81;100.00
13690;BME280;6917;52.194;9.894;2022-11-20T07:17:08;99892.06;;;-3.61;100.00
13690;BME280;6917;52.194;9.894;2022-11-20T07:19:33;99904.91;;;-3.35;100.00
13690;BME280;6917;52.194;9.894;2022-11-20T07:21:59;99905.84;;;-3.17;100.00
13690;BME280;6917;52.194;9.894;2022-11-20T07:24:24;99911.38;;;-3.07;100.00
13690;BME280;6917;52.194;9.894;2022-11-20T07:26:49;99912.09;;;-3.00;98.52
13690;BME280;6917;52.194;9.894;2022-11-20T07:29:15;99907.16;;;-2.91;96.26
13690;BME280;6917;52.194;9.894;2022-11-20T07:31:41;99901.00;;;-2.92;95.21
13690;BME280;6917;52.194;9.894;2022-11-20T07:34:06;99906.50;;;-2.98;95.15
13690;BME280;6917;52.194;9.894;2022-11-20T07:36:32;99920.69;;;-3.33;97.64
13690;BME280;6917;52.194;9.894;2022-11-20T07:38:57;99917.81;;;-3.67;100.00
13690;BME280;6917;52.194;9.894;2022-11-20T07:41:22;99920.00;;;-3.75;100.00
13690;BME280;6917;52.194;9.894;2022-11-20T07:43:47;99917.72;;;-3.60;100.00
13690;BME280;6917;52.194;9.894;2022-11-20T07:46:13;99926.16;;;-3.51;100.00
13690;BME280;6917;52.194;9.894;2022-11-20T07:48:38;99918.41;;;-3.41;100.00
13690;BME280;6917;52.194;9.894;2022-11-20T07:51:04;99920.72;;;-3.45;100.00
13690;BME280;6917;52.194;9.894;2022-11-20T07:53:29;99920.69;;;-3.33;100.00
13690;BME280;6917;52.194;9.894;2022-11-20T07:55:54;99925.25;;;-3.45;100.00
13690;BME280;6917;52.194;9.894;2022-11-20T07:58:20;99933.47;;;-3.35;100.00
13690;BME280;6917;52.194;9.894;2022-11-20T08:00:46;99928.38;;;-3.25;100.00
13690;BME280;6917;52.194;9.894;2022-11-20T08:03:11;99931.50;;;-3.28;100.00
13690;BME280;6917;52.194;9.894;2022-11-20T08:05:37;99927.91;;;-3.57;100.00
13690;BME280;6917;52.194;9.894;2022-11-20T08:08:02;99921.63;;;-3.63;100.00
13690;BME280;6917;52.194;9.894;2022-11-20T08:10:28;99926.63;;;-3.54;100.00
13690;BME280;6917;52.194;9.894;2022-11-20T08:12:53;99918.41;;;-3.30;100.00
13690;BME280;6917;52.194;9.894;2022-11-20T08:15:38;99923.59;;;-3.11;100.00
13690;BME280;6917;52.194;9.894;2022-11-20T08:18:09;99918.59;;;-3.19;100.00
13690;BME280;6917;52.194;9.894;2022-11-20T08:20:36;99929.56;;;-3.33;100.00
13690;BME280;6917;52.194;9.894;2022-11-20T08:23:06;99932.56;;;-3.41;100.00
13690;BME280;6917;52.194;9.894;2022-11-20T08:25:32;99932.44;;;-3.34;100.00
13690;BME280;6917;52.194;9.894;2022-11-20T08:27:59;99935.56;;;-3.14;100.00
13690;BME280;6917;52.194;9.894;2022-11-20T08:30:25;99934.13;;;-3.05;100.00
13690;BME280;6917;52.194;9.894;2022-11-20T08:32:50;99928.94;;;-3.11;100.00
13690;BME280;6917;52.194;9.894;2022-11-20T08:35:16;99933.47;;;-3.12;100.00
13690;BME280;6917;52.194;9.894;2022-11-20T08:37:41;99935.19;;;-3.06;100.00
13690;BME280;6917;52.194;9.894;2022-11-20T08:40:11;99935.19;;;-2.94;100.00
13690;BME280;6917;52.194;9.894;2022-11-20T08:42:36;99926.34;;;-2.83;100.00
13690;BME280;6917;52.194;9.894;2022-11-20T08:45:02;99921.44;;;-2.74;100.00
13690;BME280;6917;52.194;9.894;2022-11-20T08:47:28;99926.63;;;-2.67;100.00
13690;BME280;6917;52.194;9.894;2022-11-20T08:49:53;99922.66;;;-2.65;100.00
13690;BME280;6917;52.194;9.894;2022-11-20T08:52:18;99929.41;;;-2.62;99.42
13690;BME280;6917;52.194;9.894;2022-11-20T08:54:44;99928.94;;;-2.59;97.37
13690;BME280;6917;52.194;9.894;2022-11-20T08:57:09;99913.72;;;-2.59;95.68
13690;BME280;6917;52.194;9.894;2022-11-20T08:59:34;99918.25;;;-2.59;94.65
13690;BME280;6917;52.194;9.894;2022-11-20T09:01:59;99926.47;;;-2.61;93.79
13690;BME280;6917;52.194;9.894;2022-11-20T09:04:25;99923.59;;;-2.59;93.65
13690;BME280;6917;52.194;9.894;2022-11-20T09:06:50;99923.69;;;-2.54;93.19
13690;BME280;6917;52.194;9.894;2022-11-20T09:09:17;99928.88;;;-2.48;92.62
13690;BME280;6917;52.194;9.894;2022-11-20T09:11:43;99923.72;;;-2.37;92.13
13690;BME280;6917;52.194;9.894;2022-11-20T09:14:08;99918.00;;;-2.29;91.14
13690;BME280;6917;52.194;9.894;2022-11-20T09:16:34;99917.94;;;-2.18;90.53
13690;BME280;6917;52.194;9.894;2022-11-20T09:18:59;99915.84;;;-2.16;89.59
13690;BME280;6917;52.194;9.894;2022-11-20T09:21:24;99920.97;;;-2.14;88.90
13690;BME280;6917;52.194;9.894;2022-11-20T09:23:50;99918.13;;;-2.07;89.33
13690;BME280;6917;52.194;9.894;2022-11-20T09:26:15;99912.19;;;-2.10;89.68
13690;BME280;6917;52.194;9.894;2022-11-20T09:28:41;99892.56;;;-2.15;89.78
13690;BME280;6917;52.194;9.894;2022-11-20T09:31:08;99878.03;;;-2.19;89.52
13690;BME280;6917;52.194;9.894;2022-11-20T09:33:34;99897.94;;;-2.15;88.59
13690;BME280;6917;52.194;9.894;2022-11-20T09:36:00;99908.38;;;-2.14;88.43
13690;BME280;6917;52.194;9.894;2022-11-20T09:38:26;99904.97;;;-2.09;88.35
13690;BME280;6917;52.194;9.894;2022-11-20T09:41:54;99910.19;;;-2.02;87.61
13690;BME280;6917;52.194;9.894;2022-11-20T09:44:17;99906.53;;;-1.96;87.42
13690;BME280;6917;52.194;9.894;2022-11-20T09:46:53;99920.09;;;-1.86;87.99
13690;BME280;6917;52.194;9.894;2022-11-20T09:54:54;99893.88;;;-1.84;88.05
13690;BME280;6917;52.194;9.894;2022-11-20T09:57:35;99879.28;;;-1.93;88.28
13690;BME280;6917;52.194;9.894;2022-11-20T10:00:02;99883.75;;;-1.99;88.06
13690;BME280;6917;52.194;9.894;2022-11-20T10:05:08;99871.97;;;-2.15;87.35
13690;BME280;6917;52.194;9.894;2022-11-20T10:07:42;99870.44;;;-2.11;87.09
13690;BME280;6917;52.194;9.894;2022-11-20T10:10:30;99875.78;;;-1.94;86.41
13690;BME280;6917;52.194;9.894;2022-11-20T10:13:09;99885.38;;;-1.81;86.11
13690;BME280;6917;52.194;9.894;2022-11-20T10:18:27;99899.44;;;-1.35;85.90
13690;BME280;6917;52.194;9.894;2022-11-20T10:21:09;99911.19;;;-1.20;86.30
13690;BME280;6917;52.194;9.894;2022-11-20T10:29:16;99922.75;;;-0.97;85.84
13690;BME280;6917;52.194;9.894;2022-11-20T10:31:44;99914.31;;;-1.06;86.06
13690;BME280;6917;52.194;9.894;2022-11-20T10:36:44;99914.13;;;-1.38;86.29
13690;BME280;6917;52.194;9.894;2022-11-20T10:41:49;99892.72;;;-1.55;87.40
13690;BME280;6917;52.194;9.894;2022-11-20T10:44:19;99900.28;;;-1.52;87.89
13690;BME280;6917;52.194;9.894;2022-11-20T10:47:05;99908.06;;;-1.50;88.01
13690;BME280;6917;52.194;9.894;2022-11-20T10:49:35;99903.81;;;-1.46;88.69
13690;BME280;6917;52.194;9.894;2022-11-20T10:52:22;99901.16;;;-1.46;89.58
13690;BME280;6917;52.194;9.894;2022-11-20T10:55:10;99892.56;;;-1.48;89.51
13690;BME280;6917;52.194;9.894;2022-11-20T11:00:31;99888.81;;;-1.47;89.83
13690;BME280;6917;52.194;9.894;2022-11-20T11:02:56;99901.09;;;-1.51;89.23
13690;BME280;6917;52.194;9.894;2022-11-20T11:05:39;99885.75;;;-1.56;89.38
13690;BME280;6917;52.194;9.894;2022-11-20T11:08:12;99889.16;;;-1.60;89.21
13690;BME280;6917;52.194;9.894;2022-11-20T11:10:53;99872.28;;;-1.61;88.65
13690;BME280;6917;52.194;9.894;2022-11-20T11:13:28;99869.19;;;-1.53;88.88
13690;BME280;6917;52.194;9.894;2022-11-20T11:15:54;99858.88;;;-1.44;89.46
13690;BME280;6917;52.194;9.894;2022-11-20T11:18:28;99861.88;;;-1.40;88.83
13690;BME280;6917;52.194;9.894;2022-11-20T11:20:56;99859.00;;;-1.34;88.72
13690;BME280;6917;52.194;9.894;2022-11-20T11:25:59;99866.22;;;-1.34;87.88
13690;BME280;6917;52.194;9.894;2022-11-20T11:28:26;99862.75;;;-1.35;87.33
13690;BME280;6917;52.194;9.894;2022-11-20T11:30:53;99863.13;;;-1.26;87.44
13690;BME280;6917;52.194;9.894;2022-11-20T11:33:26;99853.28;;;-1.21;87.24
13690;BME280;6917;52.194;9.894;2022-11-20T11:35:55;99849.53;;;-1.20;87.24
13690;BME280;6917;52.194;9.894;2022-11-20T11:38:38;99846.81;;;-1.25;86.54
13690;BME280;6917;52.194;9.894;2022-11-20T11:41:07;99842.31;;;-1.19;86.45
13690;BME280;6917;52.194;9.894;2022-11-20T11:43:36;99843.81;;;-1.06;87.27
13690;BME280;6917;52.194;9.894;2022-11-20T11:46:23;99847.84;;;-1.04;86.83
13690;BME280;6917;52.194;9.894;2022-11-20T11:52:00;99851.44;;;-0.98;87.00
13690;BME280;6917;52.194;9.894;2022-11-20T11:54:47;99846.22;;;-1.05;86.19
13690;BME280;6917;52.194;9.894;2022-11-20T11:57:29;99852.66;;;-1.06;86.08
13690;BME280;6917;52.194;9.894;2022-11-20T12:00:21;99840.19;;;-0.95;86.47
13690;BME280;6917;52.194;9.894;2022-11-20T12:15:46;99814.34;;;-0.57;86.10
13690;BME280;6917;52.194;9.894;2022-11-20T12:18:18;99810.91;;;-0.48;86.28
13690;BME280;6917;52.194;9.894;2022-11-20T12:20:53;99818.03;;;-0.58;85.72
13690;BME280;6917;52.194;9.894;2022-11-20T12:28:56;99822.00;;;-0.66;85.67
13690;BME280;6917;52.194;9.894;2022-11-20T12:31:41;99821.91;;;-0.76;86.17
13690;BME280;6917;52.194;9.894;2022-11-20T12:34:21;99823.31;;;-0.69;86.81
13690;BME280;6917;52.194;9.894;2022-11-20T12:36:59;99812.00;;;-0.44;86.85
13690;BME280;6917;52.194;9.894;2022-11-20T12:39:50;99813.72;;;-0.33;86.24
13690;BME280;6917;52.194;9.894;2022-11-20T12:45:46;99804.16;;;-0.23;85.67
13690;BME280;6917;52.194;9.894;2022-11-20T13:02:56;99799.16;;;-0.10;86.08
13690;BME280;6917;52.194;9.894;2022-11-20T13:05:51;99791.19;;;0.01;86.34
13690;BME280;6917;52.194;9.894;2022-11-20T13:08:28;99791.78;;;0.08;86.17
13690;BME280;6917;52.194;9.894;2022-11-20T13:19:02;99794.97;;;0.05;86.00
13690;BME280;6917;52.194;9.894;2022-11-20T13:21:45;99795.53;;;0.07;86.08
13690;BME280;6917;52.194;9.894;2022-11-20T13:27:03;99800.59;;;0.03;86.39
13690;BME280;6917;52.194;9.894;2022-11-20T13:29:29;99798.44;;;0.00;86.80
13690;BME280;6917;52.194;9.894;2022-11-20T13:34:38;99785.88;;;0.11;87.52
13690;BME280;6917;52.194;9.894;2022-11-20T13:37:04;99780.56;;;0.21;87.13
13690;BME280;6917;52.194;9.894;2022-11-20T13:39:34;99780.94;;;0.40;86.48
13690;BME280;6917;52.194;9.894;2022-11-20T13:42:21;99778.88;;;0.57;86.37
13690;BME280;6917;52.194;9.894;2022-11-20T13:44:54;99779.47;;;0.69;85.86
13690;BME280;6917;52.194;9.894;2022-11-20T13:47:27;99779.50;;;0.74;84.98
13690;BME280;6917;52.194;9.894;2022-11-20T13:49:54;99775.22;;;0.78;84.14
13690;BME280;6917;52.194;9.894;2022-11-20T13:55:39;99776.03;;;0.84;83.39
13690;BME280;6917;52.194;9.894;2022-11-20T13:58:12;99774.94;;;0.80;82.53
13690;BME280;6917;52.194;9.894;2022-11-20T14:01:08;99776.03;;;0.84;82.79
13690;BME280;6917;52.194;9.894;2022-11-20T14:03:35;99777.09;;;0.83;82.91
13690;BME280;6917;52.194;9.894;2022-11-20T14:06:05;99779.78;;;0.78;82.62
13690;BME280;6917;52.194;9.894;2022-11-20T14:08:48;99771.19;;;0.86;83.05
13690;BME280;6917;52.194;9.894;2022-11-20T14:11:16;99777.41;;;0.92;83.41
13690;BME280;6917;52.194;9.894;2022-11-20T14:14:21;99779.03;;;0.93;83.02
13690;BME280;6917;52.194;9.894;2022-11-20T14:16:48;99768.00;;;0.94;83.11
13690;BME280;6917;52.194;9.894;2022-11-20T14:22:30;99773.13;;;0.91;83.02
13690;BME280;6917;52.194;9.894;2022-11-20T14:24:30;99768.78;;;0.84;82.84
13690;BME280;6917;52.194;9.894;2022-11-20T14:26:56;99772.00;;;0.86;83.39
13690;BME280;6917;52.194;9.894;2022-11-20T14:29:29;99770.66;;;0.84;83.25
13690;BME280;6917;52.194;9.894;2022-11-20T14:31:56;99770.66;;;0.84;83.15
13690;BME280;6917;52.194;9.894;2022-11-20T14:34:25;99762.59;;;0.84;83.67
13690;BME280;6917;52.194;9.894;2022-11-20T14:36:55;99748.06;;;0.80;83.12
13690;BME280;6917;52.194;9.894;2022-11-20T14:39:46;99751.81;;;0.74;82.83
13690;BME280;6917;52.194;9.894;2022-11-20T14:42:18;99745.31;;;0.65;82.47
13690;BME280;6917;52.194;9.894;2022-11-20T14:44:43;99738.56;;;0.57;83.26
13690;BME280;6917;52.194;9.894;2022-11-20T14:47:12;99745.25;;;0.49;83.68
13690;BME280;6917;52.194;9.894;2022-11-20T14:49:38;99744.19;;;0.45;84.54